Time;durP1;ratioP1;P1;durP2;ratioP2;P2;SDS_P1;SDS_P2;PMS_P1;PMS_P2;Temp;Humidity;BMP_temperature;BMP_pressure;BME280_temperature;BME280_humidity;BME280_pressure;Samples;Min_cycle;Max_cycle;Signal;HPM_P1;HPM_P2
2023/12/06 00:01:26;;;;;;;188.57;111.35;;;103.20;2227.20;;;;;;5071410;28;20031;-55
2023/12/06 00:03:52;;;;;;;178.52;106.90;;;103.20;2227.20;;;;;;5071168;28;20032;-55
2023/12/06 00:06:17;;;;;;;175.30;106.18;;;103.20;2227.20;;;;;;5071468;28;20020;-55
2023/12/06 00:08:45;;;;;;;185.40;108.68;;;103.20;2227.20;;;;;;5071291;28;20024;-55
2023/12/06 00:11:11;;;;;;;194.55;117.28;;;103.10;2227.20;;;;;;5065603;28;20486;-61
2023/12/06 00:13:37;;;;;;;180.93;108.65;;;103.30;2227.20;;;;;;5069636;28;20177;-57
2023/12/06 00:16:03;;;;;;;191.45;116.95;;;103.20;2227.20;;;;;;5070956;28;20047;-63
2023/12/06 00:18:30;;;;;;;162.55;99.03;;;103.20;2227.20;;;;;;5070854;28;20521;-55
2023/12/06 00:20:56;;;;;;;188.40;110.38;;;103.20;2227.20;;;;;;5071182;28;20031;-55
2023/12/06 00:23:22;;;;;;;201.02;122.07;;;103.10;2227.20;;;;;;5070991;28;20021;-54
2023/12/06 00:25:47;;;;;;;149.20;92.18;;;103.00;2227.20;;;;;;5070888;28;20393;-58
2023/12/06 00:28:13;;;;;;;189.20;108.38;;;103.10;2227.20;;;;;;5070783;28;20462;-60
2023/12/06 00:30:39;;;;;;;167.48;102.55;;;103.20;2227.20;;;;;;5070267;28;20123;-61
2023/12/06 00:33:05;;;;;;;168.32;102.10;;;103.20;2227.20;;;;;;5070898;28;20095;-53
2023/12/06 00:35:31;;;;;;;134.95;86.80;;;103.20;2227.20;;;;;;5070811;28;20017;-58
2023/12/06 00:37:57;;;;;;;143.27;90.60;;;103.20;2227.20;;;;;;5070626;28;20482;-56
2023/12/06 00:40:23;;;;;;;140.10;89.97;;;103.10;2227.20;;;;;;5070848;28;20422;-55
2023/12/06 00:42:48;;;;;;;130.07;85.50;;;103.20;2227.20;;;;;;5070287;28;20033;-66
2023/12/06 00:45:14;;;;;;;160.05;98.63;;;103.00;2227.20;;;;;;5068909;28;20032;-65
2023/12/06 00:47:40;;;;;;;157.95;97.60;;;102.90;2227.20;;;;;;5071380;28;20020;-64
2023/12/06 00:50:06;;;;;;;162.95;97.00;;;102.80;2227.20;;;;;;5055568;28;20032;-56
2023/12/06 00:52:32;;;;;;;247.32;147.90;;;102.80;2227.20;;;;;;5074812;28;20026;-59
2023/12/06 00:54:58;;;;;;;141.35;83.97;;;102.90;2227.20;;;;;;5075071;28;20485;-56
2023/12/06 00:57:24;;;;;;;135.02;76.40;;;102.90;2227.20;;;;;;5070407;28;20090;-60
2023/12/06 00:59:49;;;;;;;115.07;72.75;;;102.80;2227.20;;;;;;5069948;28;20340;-58
2023/12/06 01:02:15;;;;;;;111.40;65.97;;;102.90;2227.20;;;;;;5070038;28;20471;-54
2023/12/06 01:04:41;;;;;;;119.47;75.15;;;102.80;2227.20;;;;;;5070416;28;20506;-61
2023/12/06 01:07:07;;;;;;;128.13;76.25;;;102.80;2227.20;;;;;;5070121;28;20055;-54
2023/12/06 01:09:32;;;;;;;88.30;56.42;;;102.80;2227.20;;;;;;5070415;28;20032;-57
2023/12/06 01:11:59;;;;;;;94.88;62.15;;;102.70;2227.20;;;;;;5069816;28;20502;-57
2023/12/06 01:14:24;;;;;;;107.25;67.57;;;102.50;2227.20;;;;;;5070116;28;20032;-60
2023/12/06 01:16:50;;;;;;;90.07;57.42;;;102.60;2227.20;;;;;;5069151;28;20035;-58
2023/12/06 01:19:16;;;;;;;98.47;59.10;;;102.70;2227.20;;;;;;5065126;28;20499;-56
2023/12/06 01:21:42;;;;;;;73.85;46.83;;;102.70;2227.20;;;;;;5069788;28;20394;-54
2023/12/06 01:24:08;;;;;;;68.20;43.45;;;102.60;2227.20;;;;;;5069617;28;20040;-57
2023/12/06 01:26:34;;;;;;;87.90;50.30;;;102.40;2227.20;;;;;;5069928;28;20029;-60
2023/12/06 01:29:04;;;;;;;78.00;42.00;;;102.50;2227.20;;;;;;5069677;28;20379;-59
2023/12/06 01:31:30;;;;;;;70.38;41.72;;;77.70;2227.20;;;;;;5069986;28;20051;-60
2023/12/06 01:33:56;;;;;;;77.85;43.63;;;77.50;2227.20;;;;;;5069385;28;20478;-56
2023/12/06 01:36:22;;;;;;;70.40;42.83;;;77.40;2227.20;;;;;;5069746;28;20032;-55
2023/12/06 01:38:48;;;;;;;70.15;41.95;;;77.50;2227.20;;;;;;5069434;28;20479;-60
2023/12/06 01:41:14;;;;;;;70.80;42.53;;;77.40;2227.20;;;;;;5069391;28;20039;-61
2023/12/06 01:43:43;;;;;;;80.80;50.88;;;77.50;2227.20;;;;;;5069797;28;20032;-60
2023/12/06 01:46:12;;;;;;;74.70;43.42;;;77.50;2227.20;;;;;;5069124;28;20028;-59
2023/12/06 01:48:39;;;;;;;73.35;43.03;;;77.60;2227.20;;;;;;5069411;28;20111;-56
2023/12/06 01:51:06;;;;;;;70.35;43.00;;;77.70;2227.20;;;;;;5050964;28;20419;-56
2023/12/06 01:53:32;;;;;;;80.25;46.03;;;77.60;2227.20;;;;;;5069657;28;20023;-57
2023/12/06 01:55:59;;;;;;;76.60;44.80;;;77.70;2227.20;;;;;;5063013;28;20033;-56
2023/12/06 01:58:26;;;;;;;72.65;43.33;;;77.40;2227.20;;;;;;5051395;28;20488;-56
2023/12/06 02:00:52;;;;;;;72.72;43.00;;;77.40;2227.20;;;;;;5068481;28;20459;-57
2023/12/06 02:03:18;;;;;;;63.78;40.60;;;77.00;2227.20;;;;;;5068879;28;20031;-56
2023/12/06 02:05:44;;;;;;;69.38;40.15;;;76.90;2227.20;;;;;;5069224;28;20379;-58
2023/12/06 02:08:11;;;;;;;60.03;38.15;;;52.00;2227.20;;;;;;5069198;28;20035;-59
2023/12/06 02:10:37;;;;;;;60.70;39.35;;;51.90;2227.20;;;;;;5069076;28;20089;-58
2023/12/06 02:13:03;;;;;;;63.95;38.80;;;51.80;2227.20;;;;;;5068935;28;20060;-59
2023/12/06 02:15:29;;;;;;;68.82;41.05;;;51.90;2227.20;;;;;;5068858;28;20028;-62
2023/12/06 02:17:55;;;;;;;65.22;38.40;;;52.10;2227.20;;;;;;5068923;28;20039;-61
2023/12/06 02:20:22;;;;;;;59.83;38.85;;;52.10;2227.20;;;;;;5069266;28;20103;-55
2023/12/06 02:22:53;;;;;;;60.50;37.15;;;76.80;2227.20;;;;;;5068887;28;20029;-56
2023/12/06 02:25:19;;;;;;;57.20;34.88;;;76.90;2227.20;;;;;;5063124;28;20040;-55
2023/12/06 02:27:45;;;;;;;62.50;33.95;;;76.90;2227.20;;;;;;5060586;28;20028;-59
2023/12/06 02:30:12;;;;;;;58.53;35.78;;;76.80;2227.20;;;;;;5068875;28;20028;-60
2023/12/06 02:32:38;;;;;;;58.85;35.08;;;76.90;2227.20;;;;;;5068938;28;20055;-55
2023/12/06 02:35:14;;;;;;;62.03;37.17;;;77.10;2227.20;;;;;;5069121;28;20089;-61
2023/12/06 02:37:41;;;;;;;60.67;36.92;;;77.00;2227.20;;;;;;5064829;28;20025;-54
2023/12/06 02:40:10;;;;;;;58.45;37.53;;;76.90;2227.20;;;;;;5068568;28;20062;-55
2023/12/06 02:42:37;;;;;;;67.85;43.38;;;76.90;2227.20;;;;;;5068533;28;20380;-56
2023/12/06 02:45:03;;;;;;;72.35;39.40;;;76.90;2227.20;;;;;;5068695;28;20486;-59
2023/12/06 02:47:29;;;;;;;67.90;39.70;;;77.00;2227.20;;;;;;5068520;28;20139;-54
2023/12/06 02:49:55;;;;;;;63.35;39.30;;;77.10;2227.20;;;;;;5068827;28;20107;-54
2023/12/06 02:52:20;;;;;;;70.05;42.28;;;77.10;2227.20;;;;;;5068788;28;20029;-60
2023/12/06 02:54:46;;;;;;;71.43;40.13;;;77.20;2227.20;;;;;;5068698;28;20539;-54
2023/12/06 02:57:12;;;;;;;70.43;41.15;;;77.10;2227.20;;;;;;5066605;28;20024;-60
2023/12/06 02:59:39;;;;;;;65.38;37.55;;;77.10;2227.20;;;;;;5060648;28;20068;-59
2023/12/06 03:02:05;;;;;;;58.53;34.47;;;77.00;2227.20;;;;;;5068569;28;20024;-61
2023/12/06 03:04:31;;;;;;;58.20;35.58;;;77.10;2227.20;;;;;;5068787;28;20056;-55
2023/12/06 03:06:56;;;;;;;55.20;31.90;;;77.30;2227.20;;;;;;5068405;28;20016;-57
2023/12/06 03:09:22;;;;;;;50.80;32.65;;;77.40;2227.20;;;;;;5068683;28;20028;-55
2023/12/06 03:11:48;;;;;;;54.92;32.72;;;77.40;2227.20;;;;;;5068242;28;20108;-58
2023/12/06 03:14:14;;;;;;;49.50;30.85;;;77.60;2227.20;;;;;;5072137;28;20033;-58
2023/12/06 03:16:40;;;;;;;48.22;30.48;;;102.40;2227.20;;;;;;5071567;28;20016;-61
2023/12/06 03:19:05;;;;;;;42.22;27.58;;;77.70;2227.20;;;;;;5072253;28;20025;-56
2023/12/06 03:21:31;;;;;;;73.30;43.58;;;77.70;2227.20;;;;;;5071843;28;20016;-57
2023/12/06 03:23:57;;;;;;;45.40;27.75;;;77.70;2227.20;;;;;;5054018;28;20037;-58
2023/12/06 03:26:23;;;;;;;45.28;28.05;;;102.40;2227.20;;;;;;5071992;28;20020;-61
2023/12/06 03:28:48;;;;;;;45.58;29.25;;;102.40;2227.20;;;;;;5071781;28;20028;-55
2023/12/06 03:31:14;;;;;;;45.22;28.10;;;102.50;2227.20;;;;;;5069800;28;20048;-58
2023/12/06 03:33:40;;;;;;;49.00;25.52;;;102.40;2227.20;;;;;;5053711;28;20029;-57
2023/12/06 03:36:09;;;;;;;47.75;27.60;;;102.50;2227.20;;;;;;5070504;28;20055;-56
2023/12/06 03:38:35;;;;;;;43.33;26.45;;;102.50;2227.20;;;;;;5071388;28;20032;-62
2023/12/06 03:41:01;;;;;;;45.38;26.95;;;102.50;2227.20;;;;;;5071823;28;20024;-61
2023/12/06 03:43:27;;;;;;;46.80;32.00;;;102.50;2227.20;;;;;;5071468;28;20017;-55
2023/12/06 03:45:53;;;;;;;45.05;26.52;;;102.50;2227.20;;;;;;5071221;28;20067;-55
2023/12/06 03:48:19;;;;;;;45.40;27.75;;;102.60;2227.20;;;;;;5071328;28;20423;-55
2023/12/06 03:50:45;;;;;;;46.60;26.60;;;102.60;2227.20;;;;;;5071606;28;20043;-54
2023/12/06 03:53:11;;;;;;;41.97;27.65;;;102.60;2227.20;;;;;;5071479;28;20091;-60
2023/12/06 03:55:36;;;;;;;46.03;25.92;;;102.60;2227.20;;;;;;5058301;28;20033;-55
2023/12/06 03:58:02;;;;;;;43.53;26.13;;;102.60;2227.20;;;;;;5071479;28;20028;-55
2023/12/06 04:00:28;;;;;;;40.97;26.48;;;102.50;2227.20;;;;;;5071296;28;20025;-55
2023/12/06 04:02:54;;;;;;;39.70;25.65;;;102.60;2227.20;;;;;;5071360;28;20032;-54
2023/12/06 04:05:19;;;;;;;48.47;27.98;;;102.60;2227.20;;;;;;5065116;28;20138;-56
2023/12/06 04:07:45;;;;;;;47.90;25.85;;;102.50;2227.20;;;;;;5067829;28;20154;-54
2023/12/06 04:10:11;;;;;;;46.15;27.05;;;102.40;2227.20;;;;;;5071487;28;20173;-61
2023/12/06 04:12:37;;;;;;;41.35;26.67;;;77.70;2227.20;;;;;;5071036;28;20468;-55
2023/12/06 04:15:04;;;;;;;48.25;29.50;;;77.70;2227.20;;;;;;5070822;28;20036;-59
2023/12/06 04:17:30;;;;;;;50.17;30.20;;;77.70;2227.20;;;;;;5070950;28;20039;-56
2023/12/06 04:19:56;;;;;;;46.75;27.98;;;77.70;2227.20;;;;;;5071009;28;20032;-57
2023/12/06 04:22:22;;;;;;;49.80;31.13;;;102.40;2227.20;;;;;;5070989;28;20028;-55
2023/12/06 04:24:48;;;;;;;47.72;30.52;;;77.70;2227.20;;;;;;5069899;28;20044;-55
2023/12/06 04:27:14;;;;;;;52.50;32.35;;;77.70;2227.20;;;;;;5070915;28;20032;-55
2023/12/06 04:29:40;;;;;;;55.80;30.80;;;77.60;2227.20;;;;;;5070488;28;20478;-60
2023/12/06 04:32:06;;;;;;;49.83;30.67;;;77.70;2227.20;;;;;;5070695;28;20029;-56
2023/12/06 04:34:33;;;;;;;54.38;30.50;;;77.70;2227.20;;;;;;5067669;28;20064;-61
2023/12/06 04:36:59;;;;;;;59.45;33.72;;;77.70;2227.20;;;;;;5067717;28;20028;-56
2023/12/06 04:39:24;;;;;;;67.57;42.15;;;77.70;2227.20;;;;;;5070958;28;20490;-54
2023/12/06 04:41:50;;;;;;;64.90;36.05;;;102.40;2227.20;;;;;;5070612;28;20532;-55
2023/12/06 04:44:16;;;;;;;54.95;35.20;;;77.60;2227.20;;;;;;5070053;28;20544;-55
2023/12/06 04:46:42;;;;;;;63.33;35.90;;;77.70;2227.20;;;;;;5070356;28;20024;-56
2023/12/06 04:49:08;;;;;;;57.67;31.58;;;77.70;2227.20;;;;;;5070357;28;20078;-55
2023/12/06 04:51:33;;;;;;;58.75;34.33;;;77.70;2227.20;;;;;;5070528;28;20111;-55
2023/12/06 04:53:59;;;;;;;58.47;36.65;;;77.60;2227.20;;;;;;5070446;28;20082;-55
2023/12/06 04:56:25;;;;;;;55.03;34.17;;;77.60;2227.20;;;;;;5070557;28;20120;-57
2023/12/06 04:58:50;;;;;;;59.45;35.40;;;77.60;2227.20;;;;;;5070463;28;20063;-62
2023/12/06 05:01:16;;;;;;;58.70;35.28;;;77.70;2227.20;;;;;;5072145;28;20554;-59
2023/12/06 05:03:42;;;;;;;62.45;34.88;;;77.60;2227.20;;;;;;5073614;28;20178;-60
2023/12/06 05:06:08;;;;;;;64.47;41.17;;;77.70;2227.20;;;;;;5074960;28;20056;-59
2023/12/06 05:08:33;;;;;;;74.40;49.55;;;77.70;2227.20;;;;;;5074799;28;20027;-61
2023/12/06 05:10:59;;;;;;;56.20;32.97;;;77.70;2227.20;;;;;;5066231;28;20047;-62
2023/12/06 05:13:26;;;;;;;59.42;36.60;;;77.70;2227.20;;;;;;5063515;28;20051;-62
2023/12/06 05:15:51;;;;;;;71.05;39.90;;;77.60;2227.20;;;;;;5070098;28;20020;-57
2023/12/06 05:18:17;;;;;;;63.50;37.25;;;77.70;2227.20;;;;;;5069876;28;20021;-62
2023/12/06 05:20:43;;;;;;;61.17;36.55;;;102.40;2227.20;;;;;;5052584;28;20029;-55
2023/12/06 05:23:09;;;;;;;53.85;33.08;;;77.70;2227.20;;;;;;5069649;28;20543;-58
2023/12/06 05:25:35;;;;;;;62.05;38.50;;;102.40;2227.20;;;;;;5069174;28;20055;-59
2023/12/06 05:28:00;;;;;;;62.97;34.55;;;77.70;2227.20;;;;;;5069593;28;20016;-57
2023/12/06 05:30:26;;;;;;;59.95;38.05;;;102.40;2227.20;;;;;;5069177;28;20021;-56
2023/12/06 05:32:52;;;;;;;64.68;36.20;;;102.50;2227.20;;;;;;5070095;28;20374;-55
2023/12/06 05:35:18;;;;;;;61.13;38.80;;;102.50;2227.20;;;;;;5068787;28;20020;-57
2023/12/06 05:37:43;;;;;;;58.50;36.85;;;102.50;2227.20;;;;;;5067661;28;20033;-56
2023/12/06 05:40:10;;;;;;;62.47;35.83;;;102.50;2227.20;;;;;;5069659;28;20020;-61
2023/12/06 05:42:35;;;;;;;63.47;37.08;;;102.50;2227.20;;;;;;5069332;28;20046;-59
2023/12/06 05:45:01;;;;;;;60.90;36.50;;;102.50;2227.20;;;;;;5051942;28;20117;-61
2023/12/06 05:47:27;;;;;;;63.33;36.10;;;102.50;2227.20;;;;;;5067184;28;20489;-62
2023/12/06 05:49:53;;;;;;;67.18;35.97;;;102.50;2227.20;;;;;;5069389;28;20539;-59
2023/12/06 05:52:18;;;;;;;67.65;36.22;;;102.50;2227.20;;;;;;5069308;28;20036;-55
2023/12/06 05:54:44;;;;;;;65.90;35.35;;;102.50;2227.20;;;;;;5069264;28;20017;-56
2023/12/06 05:57:10;;;;;;;59.55;32.55;;;102.50;2227.20;;;;;;5069303;28;20020;-61
2023/12/06 05:59:36;;;;;;;61.00;36.35;;;102.60;2227.20;;;;;;5069084;28;20054;-55
2023/12/06 06:02:02;;;;;;;61.88;33.83;;;102.50;2227.20;;;;;;5069431;28;20036;-56
2023/12/06 06:04:28;;;;;;;141.40;73.10;;;102.50;2227.20;;;;;;5068724;28;20390;-62
2023/12/06 06:06:53;;;;;;;67.28;38.13;;;102.70;2227.20;;;;;;5068865;28;20029;-57
2023/12/06 06:09:20;;;;;;;68.85;38.05;;;102.50;2227.20;;;;;;5068858;28;20467;-56
2023/12/06 06:11:45;;;;;;;54.58;32.95;;;102.50;2227.20;;;;;;5069023;28;20017;-57
2023/12/06 06:14:11;;;;;;;71.70;37.38;;;102.50;2227.20;;;;;;5069391;28;20051;-55
2023/12/06 06:16:37;;;;;;;68.93;39.25;;;102.60;2227.20;;;;;;5068806;28;20467;-55
2023/12/06 06:19:03;;;;;;;62.85;37.35;;;102.50;2227.20;;;;;;5068769;28;20055;-56
2023/12/06 06:21:29;;;;;;;63.45;35.70;;;102.50;2227.20;;;;;;5061353;28;20456;-55
2023/12/06 06:23:55;;;;;;;69.90;36.78;;;102.50;2227.20;;;;;;5068433;28;20124;-55
2023/12/06 06:26:20;;;;;;;66.10;37.10;;;102.50;2227.20;;;;;;5068995;28;20021;-55
2023/12/06 06:28:46;;;;;;;68.75;37.58;;;102.50;2227.20;;;;;;5069116;28;20108;-56
2023/12/06 06:31:12;;;;;;;65.78;38.60;;;102.60;2227.20;;;;;;5068817;28;20020;-56
2023/12/06 06:33:38;;;;;;;67.45;37.78;;;102.70;2227.20;;;;;;5068439;28;20029;-56
2023/12/06 06:36:04;;;;;;;73.20;41.58;;;102.80;2227.20;;;;;;5055760;28;20025;-54
2023/12/06 06:38:29;;;;;;;82.05;45.33;;;102.80;2227.20;;;;;;5068937;28;20038;-55
2023/12/06 06:40:56;;;;;;;105.13;56.65;;;102.80;2227.20;;;;;;5068610;28;20370;-56
2023/12/06 06:43:21;;;;;;;69.85;42.45;;;102.70;2227.20;;;;;;5055626;28;20024;-59
2023/12/06 06:45:47;;;;;;;98.47;57.60;;;102.80;2227.20;;;;;;5068494;28;20036;-59
2023/12/06 06:48:13;;;;;;;75.75;42.30;;;102.70;2227.20;;;;;;5071403;28;20020;-55
2023/12/06 06:50:38;;;;;;;79.65;44.70;;;102.80;2227.20;;;;;;5072384;28;20059;-66
2023/12/06 06:53:04;;;;;;;72.30;41.25;;;102.90;2227.20;;;;;;5071355;28;20051;-60
2023/12/06 06:55:30;;;;;;;75.55;40.53;;;103.10;2227.20;;;;;;5071010;28;20043;-60
2023/12/06 06:57:56;;;;;;;69.57;39.65;;;103.20;2227.20;;;;;;5072427;28;20417;-60
2023/12/06 07:00:22;;;;;;;71.00;42.55;;;103.10;2227.20;;;;;;5071920;28;20483;-61
2023/12/06 07:02:48;;;;;;;65.68;38.17;;;103.20;2227.20;;;;;;5072209;28;20844;-59
2023/12/06 07:05:14;;;;;;;81.35;43.13;;;103.10;2227.20;;;;;;5071684;28;20402;-64
2023/12/06 07:07:43;;;;;;;62.85;36.85;;;103.00;2227.20;;;;;;5072102;28;20081;-63
2023/12/06 07:10:09;;;;;;;67.72;40.92;;;103.00;2227.20;;;;;;5068971;28;20099;-65
2023/12/06 07:12:36;;;;;;;70.38;38.50;;;103.10;2227.20;;;;;;5071773;28;20386;-66
2023/12/06 07:15:03;;;;;;;71.00;41.60;;;103.10;2227.20;;;;;;5071036;28;20361;-65
2023/12/06 07:17:32;;;;;;;70.95;41.40;;;103.10;2227.20;;;;;;5071324;28;20025;-66
2023/12/06 07:19:58;;;;;;;72.82;45.17;;;103.10;2227.20;;;;;;5072093;28;20044;-65
2023/12/06 07:22:24;;;;;;;75.13;45.63;;;103.10;2227.20;;;;;;5071723;28;20371;-65
2023/12/06 07:24:50;;;;;;;61.88;38.83;;;103.20;2227.20;;;;;;5061360;28;20049;-65
2023/12/06 07:27:15;;;;;;;55.05;34.10;;;103.30;2227.20;;;;;;5071805;28;20020;-66
2023/12/06 07:29:44;;;;;;;69.65;46.45;;;128.10;2252.80;;;;;;5071899;28;20382;-67
2023/12/06 07:32:10;;;;;;;65.25;40.33;;;128.10;2252.80;;;;;;5054486;28;20056;-66
2023/12/06 07:34:36;;;;;;;62.28;38.45;;;128.10;2252.80;;;;;;5072154;28;20102;-64
2023/12/06 07:37:02;;;;;;;51.47;36.45;;;128.00;2252.80;;;;;;5071115;28;20048;-67
2023/12/06 07:39:27;;;;;;;58.90;38.03;;;103.30;2227.20;;;;;;5071099;28;20112;-66
2023/12/06 07:41:53;;;;;;;61.88;34.50;;;128.20;2252.80;;;;;;5070787;28;20663;-66
2023/12/06 07:44:20;;;;;;;59.75;37.67;;;128.30;2252.80;;;;;;5070412;28;20483;-65
2023/12/06 07:46:46;;;;;;;59.17;36.65;;;128.30;2252.80;;;;;;5071647;28;20024;-66
2023/12/06 07:49:12;;;;;;;56.47;35.47;;;128.30;2252.80;;;;;;5071169;28;20035;-68
2023/12/06 07:51:38;;;;;;;61.70;34.75;;;128.40;2252.80;;;;;;5070949;28;20032;-68
2023/12/06 07:54:04;;;;;;;61.22;36.15;;;128.30;2252.80;;;;;;5069975;28;20032;-67
2023/12/06 07:56:30;;;;;;;66.65;35.67;;;128.40;2252.80;;;;;;5065054;28;20028;-67
2023/12/06 07:59:00;;;;;;;51.90;33.25;;;128.40;2252.80;;;;;;5069209;28;20021;-68
2023/12/06 08:01:31;;;;;;;48.60;29.35;;;128.50;2252.80;;;;;;5071306;28;20028;-70
2023/12/06 08:03:59;;;;;;;55.28;31.67;;;128.60;2252.80;;;;;;5071202;28;20028;-69
2023/12/06 08:06:26;;;;;;;60.78;40.95;;;128.90;2252.80;;;;;;5071244;28;20028;-68
2023/12/06 08:08:53;;;;;;;59.97;33.80;;;128.90;2252.80;;;;;;5057613;28;20343;-68
2023/12/06 08:11:19;;;;;;;53.17;31.77;;;153.60;2252.80;;;;;;5071008;28;20033;-66
2023/12/06 08:13:47;;;;;;;66.65;35.35;;;153.80;2252.80;;;;;;5070938;28;20546;-67
2023/12/06 08:16:13;;;;;;;55.22;33.10;;;153.80;2252.80;;;;;;5071126;28;20031;-67
2023/12/06 08:18:39;;;;;;;62.17;36.90;;;153.60;2252.80;;;;;;5071078;28;20033;-67
2023/12/06 08:21:08;;;;;;;62.70;38.95;;;153.60;2252.80;;;;;;5070907;28;20119;-67
2023/12/06 08:23:34;;;;;;;64.90;37.65;;;128.80;2252.80;;;;;;5071156;28;20490;-67
2023/12/06 08:26:00;;;;;;;56.65;31.35;;;128.80;2252.80;;;;;;5070655;28;20042;-63
2023/12/06 08:28:26;;;;;;;63.10;36.25;;;128.80;2252.80;;;;;;5063983;28;20570;-65
2023/12/06 08:30:52;;;;;;;61.92;38.08;;;128.80;2252.80;;;;;;5065363;28;20112;-65
2023/12/06 08:33:19;;;;;;;58.25;37.10;;;128.80;2252.80;;;;;;5071024;28;20383;-65
2023/12/06 08:35:45;;;;;;;167.55;106.43;;;128.80;2252.80;;;;;;5070141;28;20031;-65
2023/12/06 08:38:11;;;;;;;64.35;40.58;;;128.80;2252.80;;;;;;5070873;28;20013;-66
2023/12/06 08:40:37;;;;;;;55.70;31.55;;;128.50;2252.80;;;;;;5070831;28;20028;-66
2023/12/06 08:43:03;;;;;;;75.85;44.90;;;128.70;2252.80;;;;;;5070506;28;20170;-65
2023/12/06 08:45:29;;;;;;;65.45;37.60;;;128.70;2252.80;;;;;;5070458;28;20036;-66
2023/12/06 08:47:54;;;;;;;59.08;34.22;;;128.70;2252.80;;;;;;5070078;28;20025;-64
2023/12/06 08:50:21;;;;;;;57.67;31.65;;;128.60;2252.80;;;;;;5070326;28;20478;-64
2023/12/06 08:52:47;;;;;;;176.93;92.13;;;128.50;2252.80;;;;;;5070194;28;20056;-64
2023/12/06 08:55:13;;;;;;;249.75;121.70;;;128.60;2252.80;;;;;;5069908;28;20055;-66
2023/12/06 08:57:39;;;;;;;57.78;32.92;;;128.50;2252.80;;;;;;5070115;28;20033;-64
2023/12/06 09:00:07;;;;;;;58.90;34.90;;;128.50;2252.80;;;;;;5063910;28;20112;-65
2023/12/06 09:02:34;;;;;;;53.50;30.63;;;128.70;2252.80;;;;;;5070303;28;20473;-66
2023/12/06 09:05:00;;;;;;;79.70;44.50;;;128.60;2252.80;;;;;;5069668;28;20098;-66
2023/12/06 09:07:26;;;;;;;52.95;31.77;;;128.70;2252.80;;;;;;5070262;28;20028;-67
2023/12/06 09:09:52;;;;;;;61.95;34.72;;;128.50;2252.80;;;;;;5052317;28;20028;-66
2023/12/06 09:12:17;;;;;;;51.75;30.88;;;128.70;2252.80;;;;;;5069946;28;20040;-65
2023/12/06 09:14:43;;;;;;;248.73;119.35;;;128.80;2252.80;;;;;;5070112;28;20017;-64
2023/12/06 09:17:09;;;;;;;54.90;32.67;;;128.70;2252.80;;;;;;5070078;28;20438;-67
2023/12/06 09:19:35;;;;;;;255.30;134.95;;;128.60;2252.80;;;;;;5070218;28;20028;-65
2023/12/06 09:22:01;;;;;;;65.38;36.67;;;128.60;2252.80;;;;;;5069739;28;20497;-66
2023/12/06 09:24:26;;;;;;;331.95;173.35;;;128.50;2252.80;;;;;;5069416;28;20048;-66
2023/12/06 09:26:52;;;;;;;439.65;233.32;;;128.70;2252.80;;;;;;5069484;28;20024;-67
2023/12/06 09:29:18;;;;;;;100.18;52.53;;;128.60;2252.80;;;;;;5071837;28;20030;-68
2023/12/06 09:31:43;;;;;;;112.63;64.13;;;128.80;2252.80;;;;;;5061510;28;20029;-66
2023/12/06 09:34:09;;;;;;;55.00;33.08;;;128.80;2252.80;;;;;;5061394;28;20020;-67
2023/12/06 09:36:35;;;;;;;53.70;32.10;;;128.80;2252.80;;;;;;5074476;28;20480;-72
2023/12/06 09:39:01;;;;;;;51.88;28.75;;;128.80;2252.80;;;;;;5074218;28;20025;-70
2023/12/06 09:41:31;;;;;;;48.22;29.17;;;153.60;2252.80;;;;;;5073168;28;20131;-66
2023/12/06 09:43:59;;;;;;;49.60;31.92;;;153.60;2252.80;;;;;;5069507;28;20417;-65
2023/12/06 09:46:25;;;;;;;60.25;34.25;;;128.90;2252.80;;;;;;5069283;28;20386;-65
2023/12/06 09:48:54;;;;;;;50.97;31.50;;;153.70;2252.80;;;;;;5069640;28;20454;-66
2023/12/06 09:51:22;;;;;;;56.80;36.95;;;153.80;2252.80;;;;;;5068817;28;20043;-65
2023/12/06 09:53:47;;;;;;;63.65;39.58;;;154.00;2252.80;;;;;;5069026;28;20035;-64
2023/12/06 09:56:14;;;;;;;48.30;29.08;;;154.00;2252.80;;;;;;5068573;28;20100;-67
2023/12/06 09:58:40;;;;;;;50.65;29.83;;;154.00;2252.80;;;;;;5068870;28;20463;-68
2023/12/06 10:01:06;;;;;;;70.35;41.90;;;153.80;2252.80;;;;;;5068656;28;20573;-66
2023/12/06 10:03:32;;;;;;;58.35;36.75;;;153.70;2252.80;;;;;;5064273;28;20120;-66
2023/12/06 10:06:04;;;;;;;51.85;34.72;;;153.70;2252.80;;;;;;5066307;28;20526;-64
2023/12/06 10:08:34;;;;;;;57.97;33.83;;;153.80;2252.80;;;;;;5069022;28;20029;-63
2023/12/06 10:11:05;;;;;;;145.73;82.13;;;153.90;2252.80;;;;;;5068877;28;20085;-62
2023/12/06 10:13:32;;;;;;;60.72;36.38;;;153.80;2252.80;;;;;;5067855;28;20037;-65
2023/12/06 10:15:59;;;;;;;50.55;30.63;;;153.90;2252.80;;;;;;5068570;28;20024;-65
2023/12/06 10:18:24;;;;;;;58.03;33.83;;;154.00;2252.80;;;;;;5068491;28;20064;-64
2023/12/06 10:20:50;;;;;;;148.80;78.80;;;154.00;2252.80;;;;;;5068052;28;20063;-65
2023/12/06 10:23:16;;;;;;;45.35;28.50;;;153.90;2252.80;;;;;;5073915;28;20473;-65
2023/12/06 10:25:45;;;;;;;47.92;29.55;;;153.90;2252.80;;;;;;5075287;28;20507;-63
2023/12/06 10:28:12;;;;;;;52.17;28.42;;;154.20;2252.80;;;;;;5075269;28;20028;-66
2023/12/06 10:30:37;;;;;;;52.67;31.90;;;154.30;2252.80;;;;;;5074414;28;20030;-63
2023/12/06 10:33:05;;;;;;;54.58;31.42;;;154.30;2252.80;;;;;;5075325;28;20012;-63
2023/12/06 10:35:35;;;;;;;47.13;28.70;;;179.20;2252.80;;;;;;5067730;28;20079;-65
2023/12/06 10:38:02;;;;;;;49.47;29.63;;;154.40;2252.80;;;;;;5068053;28;20050;-64
2023/12/06 10:40:29;;;;;;;51.95;30.10;;;154.40;2252.80;;;;;;5074813;28;20028;-64
2023/12/06 10:43:07;;;;;;;55.25;34.55;;;154.30;2252.80;;;;;;5073890;28;20115;-64
2023/12/06 10:45:33;;;;;;;55.28;30.33;;;154.20;2252.80;;;;;;5075211;28;20115;-66
2023/12/06 10:48:01;;;;;;;50.20;29.80;;;154.20;2252.80;;;;;;5074284;28;20028;-66
2023/12/06 10:50:29;;;;;;;90.65;52.45;;;154.30;2252.80;;;;;;5074684;28;20029;-66
2023/12/06 10:52:55;;;;;;;82.13;49.90;;;154.30;2252.80;;;;;;5075096;28;20021;-66
2023/12/06 10:55:22;;;;;;;189.55;121.70;;;154.40;2252.80;;;;;;5075637;28;20044;-66
2023/12/06 10:57:50;;;;;;;88.38;54.53;;;154.30;2252.80;;;;;;5074813;28;20021;-66
2023/12/06 11:00:17;;;;;;;67.07;40.72;;;154.10;2252.80;;;;;;5074233;28;20029;-68
2023/12/06 11:02:43;;;;;;;71.22;45.38;;;154.20;2252.80;;;;;;5074959;28;20028;-66
2023/12/06 11:05:10;;;;;;;99.32;63.30;;;154.20;2252.80;;;;;;5074954;28;20038;-67
2023/12/06 11:07:48;;;;;;;57.35;37.15;;;154.30;2252.80;;;;;;5068727;28;20119;-66
2023/12/06 11:10:48;;;;;;;55.22;34.05;;;154.30;2252.80;;;;;;5067451;28;20090;-65
2023/12/06 11:13:35;;;;;;;72.97;43.60;;;154.20;2252.80;;;;;;5065455;28;20102;-66
2023/12/06 11:16:19;;;;;;;73.82;42.15;;;154.30;2252.80;;;;;;5074720;28;20021;-66
2023/12/06 11:18:47;;;;;;;64.60;38.75;;;154.30;2252.80;;;;;;5075098;28;20020;-65
2023/12/06 11:21:14;;;;;;;51.70;35.75;;;154.30;2252.80;;;;;;5075240;28;20428;-66
2023/12/06 11:23:41;;;;;;;44.85;28.02;;;154.30;2252.80;;;;;;5074562;28;20037;-67
2023/12/06 11:26:07;;;;;;;42.63;25.77;;;154.20;2252.80;;;;;;5075206;28;20040;-66
2023/12/06 11:28:40;;;;;;;39.08;23.88;;;154.30;2252.80;;;;;;5074676;28;20027;-66
2023/12/06 11:31:07;;;;;;;48.85;30.42;;;154.00;2252.80;;;;;;5074842;28;20059;-67
2023/12/06 11:33:34;;;;;;;59.80;34.25;;;154.10;2252.80;;;;;;5074217;28;20195;-66
2023/12/06 11:36:00;;;;;;;45.10;28.88;;;154.10;2252.80;;;;;;5071754;28;20029;-66
2023/12/06 11:38:36;;;;;;;43.25;27.88;;;154.20;2252.80;;;;;;5069709;28;20099;-66
2023/12/06 11:41:05;;;;;;;40.55;26.00;;;154.20;2252.80;;;;;;5071146;28;20029;-65
2023/12/06 11:43:32;;;;;;;285.05;159.48;;;154.20;2252.80;;;;;;5071348;28;20074;-67
2023/12/06 11:46:08;;;;;;;44.10;29.20;;;154.10;2252.80;;;;;;5070744;28;20419;-66
2023/12/06 11:48:36;;;;;;;37.72;25.75;;;154.20;2252.80;;;;;;5071384;28;20136;-65
2023/12/06 11:51:03;;;;;;;41.90;27.77;;;154.10;2252.80;;;;;;5071107;28;20036;-66
2023/12/06 11:53:29;;;;;;;85.07;53.22;;;153.90;2252.80;;;;;;5071149;28;20467;-66
2023/12/06 11:55:55;;;;;;;41.17;26.77;;;153.90;2252.80;;;;;;5071586;28;20029;-66